Time;durP1;ratioP1;P1;durP2;ratioP2;P2;SDS_P1;SDS_P2;PMS_P1;PMS_P2;Temp;Humidity;BMP_temperature;BMP_pressure;BME280_temperature;BME280_humidity;BME280_pressure;Samples;Min_cycle;Max_cycle;Signal;HPM_P1;HPM_P2
2022/07/14 20:26:20;;;;;;;5.10;1.85;;;20.90;75.60;;;;;;5071281;28;20429;-47
2022/07/14 20:34:19;;;;;;;8.25;2.08;;;20.50;82.20;;;;;;5063422;28;20003;-52
2022/07/14 20:36:46;;;;;;;5.78;1.80;;;20.50;81.20;;;;;;5056474;28;20094;-44
2022/07/14 20:39:13;;;;;;;7.35;2.17;;;20.50;82.10;;;;;;5050279;28;20057;-44
2022/07/14 20:41:39;;;;;;;8.18;2.10;;;20.50;83.70;;;;;;5054907;28;20063;-45
2022/07/14 20:44:06;;;;;;;7.90;2.08;;;20.50;83.80;;;;;;5056956;28;20038;-47
2022/07/14 20:49:18;;;;;;;;;;;20.40;85.00;;;;;;5065390;28;20076;-52
2022/07/14 20:51:53;;;;;;;5.82;1.73;;;20.40;86.40;;;;;;5068406;28;20513;-47
2022/07/14 20:54:20;;;;;;;9.38;2.00;;;20.40;85.30;;;;;;5069459;28;20700;-50
2022/07/14 20:56:47;;;;;;;7.00;2.03;;;20.40;85.70;;;;;;5069689;28;20055;-46
2022/07/14 20:59:13;;;;;;;5.97;1.90;;;20.30;86.90;;;;;;5069472;28;20500;-49
2022/07/14 21:01:40;;;;;;;5.45;2.15;;;20.30;87.20;;;;;;5069780;28;20495;-50
2022/07/14 21:04:07;;;;;;;7.60;2.40;;;20.30;87.20;;;;;;5069545;28;20045;-48
2022/07/14 21:06:34;;;;;;;7.18;2.13;;;20.30;87.70;;;;;;5069251;28;20063;-49
2022/07/14 21:09:01;;;;;;;6.97;2.10;;;20.30;88.80;;;;;;5069209;28;20098;-49
2022/07/14 21:11:27;;;;;;;6.13;2.25;;;20.20;89.20;;;;;;5069479;28;20055;-51
2022/07/14 21:13:54;;;;;;;8.27;2.00;;;20.20;89.80;;;;;;5067827;28;20041;-49
2022/07/14 21:16:21;;;;;;;6.47;1.98;;;20.20;90.30;;;;;;5069030;28;20041;-50
2022/07/14 21:18:48;;;;;;;6.68;2.03;;;20.20;90.30;;;;;;5068794;28;20072;-49
2022/07/14 21:21:15;;;;;;;6.65;2.10;;;20.20;90.40;;;;;;5069067;28;20480;-49
2022/07/14 21:23:41;;;;;;;5.93;2.10;;;20.10;90.60;;;;;;5067787;28;20464;-47
2022/07/14 21:26:08;;;;;;;6.55;1.92;;;20.10;90.80;;;;;;5068811;28;20098;-47
2022/07/14 21:28:35;;;;;;;9.68;2.83;;;20.10;90.80;;;;;;5054258;28;20045;-54
2022/07/14 21:31:02;;;;;;;16.67;7.10;;;20.00;90.90;;;;;;5049623;28;20538;-48
2022/07/14 21:33:28;;;;;;;12.90;5.45;;;20.00;91.10;;;;;;5061838;28;20037;-51
2022/07/14 21:35:55;;;;;;;9.27;3.28;;;20.00;91.20;;;;;;5065459;28;20040;-50
2022/07/14 21:38:22;;;;;;;6.38;2.65;;;20.00;91.30;;;;;;5055478;28;20464;-47
2022/07/14 21:40:49;;;;;;;6.90;2.20;;;19.90;91.40;;;;;;5042557;28;20049;-47
2022/07/14 21:43:15;;;;;;;8.85;2.50;;;19.80;91.50;;;;;;5036304;28;20045;-48
2022/07/14 21:45:42;;;;;;;7.07;2.70;;;19.80;91.60;;;;;;5036905;28;20053;-52
2022/07/14 21:48:13;;;;;;;9.75;2.70;;;19.80;91.90;;;;;;5036000;28;20476;-49
2022/07/14 21:50:40;;;;;;;6.70;2.67;;;19.70;91.90;;;;;;5047313;28;20103;-46
2022/07/14 21:53:06;;;;;;;7.32;2.38;;;19.70;92.00;;;;;;5037083;28;20421;-52
2022/07/14 21:55:33;;;;;;;6.47;2.17;;;19.70;92.10;;;;;;5035436;28;20243;-48
2022/07/14 21:58:00;;;;;;;7.75;2.50;;;19.70;92.00;;;;;;5048100;28;20124;-49
2022/07/14 22:00:27;;;;;;;8.73;2.80;;;19.70;92.10;;;;;;5054916;28;20041;-52
2022/07/14 22:02:53;;;;;;;8.35;2.83;;;19.60;92.30;;;;;;5054134;28;20166;-48
2022/07/14 22:05:20;;;;;;;8.65;3.67;;;19.60;92.40;;;;;;5054864;28;20047;-54
2022/07/14 22:07:48;;;;;;;8.68;2.80;;;19.50;92.50;;;;;;5054618;28;20559;-49
2022/07/14 22:10:14;;;;;;;7.35;2.22;;;19.40;92.70;;;;;;5053948;28;20107;-52
2022/07/14 22:12:41;;;;;;;6.90;2.58;;;19.40;92.70;;;;;;5054486;28;20045;-48
2022/07/14 22:15:08;;;;;;;7.47;2.25;;;19.40;92.80;;;;;;5053754;28;20036;-47
2022/07/14 22:17:34;;;;;;;7.32;2.17;;;19.30;93.00;;;;;;5054280;28;20033;-48
2022/07/14 22:20:02;;;;;;;6.88;2.60;;;19.20;93.20;;;;;;5053869;28;20071;-47
2022/07/14 22:22:28;;;;;;;5.38;1.80;;;19.20;93.30;;;;;;5053035;28;20135;-47
2022/07/14 22:24:55;;;;;;;8.10;1.98;;;19.10;93.50;;;;;;5054180;28;20554;-51
2022/07/14 22:27:22;;;;;;;10.73;2.33;;;19.20;93.70;;;;;;5053651;28;20052;-51
2022/07/14 22:29:51;;;;;;;7.00;2.58;;;19.10;93.60;;;;;;5038577;28;20045;-48
2022/07/14 22:32:18;;;;;;;7.20;2.50;;;19.10;93.70;;;;;;5046767;28;20048;-51
2022/07/14 22:34:46;;;;;;;6.65;2.58;;;19.00;93.70;;;;;;5051608;28;20495;-48
2022/07/14 22:37:12;;;;;;;9.07;2.58;;;19.00;93.80;;;;;;5052709;28;20045;-46
2022/07/14 22:39:39;;;;;;;7.47;2.67;;;19.00;93.70;;;;;;5053837;28;20045;-50
